Time;durP1;ratioP1;P1;durP2;ratioP2;P2;SDS_P1;SDS_P2;PMS_P1;PMS_P2;Temp;Humidity;BMP_temperature;BMP_pressure;BME280_temperature;BME280_humidity;BME280_pressure;Samples;Min_cycle;Max_cycle;Signal;HPM_P1;HPM_P2
2022/04/23 00:00:44;;;;;;;;;;;8.90;99.90;;;;;;4962453;28;19926;-82
2022/04/23 00:03:32;;;;;;;;;;;8.80;99.90;;;;;;4969437;28;20065;-85
2022/04/23 00:06:23;;;;;;;;;;;8.80;99.90;;;;;;4961082;28;19922;-83
2022/04/23 00:09:10;;;;;;;;;;;8.80;99.90;;;;;;4970863;28;20011;-84
2022/04/23 00:12:00;;;;;;;;;;;8.80;99.90;;;;;;4956639;29;19960;-84
2022/04/23 00:14:47;;;;;;;;;;;8.70;99.90;;;;;;4959917;28;20209;-83
2022/04/23 00:17:34;;;;;;;;;;;8.70;99.90;;;;;;4958496;29;19926;-84
2022/04/23 00:20:23;;;;;;;;;;;8.60;99.90;;;;;;4967536;28;19984;-84
2022/04/23 00:23:10;;;;;;;;;;;8.50;99.90;;;;;;4947545;28;20340;-83
2022/04/23 00:26:00;;;;;;;;;;;8.40;99.90;;;;;;4969513;28;19923;-84
2022/04/23 00:28:50;;;;;;;;;;;8.40;99.90;;;;;;4956405;28;20057;-82
2022/04/23 00:31:37;;;;;;;;;;;8.30;99.90;;;;;;4954808;28;19933;-83
2022/04/23 00:34:28;;;;;;;;;;;8.30;99.90;;;;;;4974518;28;19926;-83
2022/04/23 00:37:17;;;;;;;;;;;8.30;99.90;;;;;;4963202;28;20240;-84
2022/04/23 00:40:06;;;;;;;;;;;8.20;99.90;;;;;;4967117;28;19922;-82
2022/04/23 00:42:55;;;;;;;;;;;8.20;99.90;;;;;;4961391;28;20328;-83
2022/04/23 00:45:44;;;;;;;;;;;8.20;99.90;;;;;;4950691;28;19933;-83
2022/04/23 00:48:31;;;;;;;;;;;8.20;99.90;;;;;;4968326;28;19977;-84
2022/04/23 00:51:19;;;;;;;;;;;8.20;99.90;;;;;;4942668;29;19957;-83
2022/04/23 00:54:09;;;;;;;;;;;8.20;99.90;;;;;;4939471;28;19930;-84
2022/04/23 00:56:58;;;;;;;;;;;8.10;99.90;;;;;;4955615;29;19922;-83
2022/04/23 00:59:46;;;;;;;;;;;8.10;99.90;;;;;;4949061;28;20351;-84
2022/04/23 01:02:39;;;;;;;;;;;8.10;99.90;;;;;;4961293;28;19933;-84
2022/04/23 01:05:26;;;;;;;;;;;8.10;99.90;;;;;;4951145;28;19922;-82
2022/04/23 01:08:15;;;;;;;;;;;8.10;99.90;;;;;;4972953;28;19929;-83
2022/04/23 01:11:02;;;;;;;;;;;8.10;99.90;;;;;;4947326;29;20033;-84
2022/04/23 01:13:49;;;;;;;;;;;8.00;99.90;;;;;;4956657;28;20032;-85
2022/04/23 01:16:36;;;;;;;;;;;7.90;99.90;;;;;;4961117;28;19921;-83
2022/04/23 01:19:25;;;;;;;;;;;7.90;99.90;;;;;;4974182;28;20030;-84
2022/04/23 01:22:12;;;;;;;;;;;7.80;99.90;;;;;;4957216;28;20247;-85
2022/04/23 01:25:00;;;;;;;;;;;7.80;99.90;;;;;;4951931;28;19981;-83
2022/04/23 01:27:50;;;;;;;;;;;7.80;99.90;;;;;;4961490;28;20292;-84
2022/04/23 01:30:39;;;;;;;;;;;7.70;99.90;;;;;;4960000;28;19953;-83
2022/04/23 01:33:26;;;;;;;;;;;7.60;99.90;;;;;;4954489;28;19933;-84
2022/04/23 01:36:14;;;;;;;;;;;7.50;99.90;;;;;;4954623;28;19923;-84
2022/04/23 01:39:01;;;;;;;;;;;7.40;99.90;;;;;;4949775;29;19933;-83
2022/04/23 01:41:49;;;;;;;;;;;7.40;99.90;;;;;;4942823;29;19989;-84
2022/04/23 01:44:36;;;;;;;;;;;7.30;99.90;;;;;;4926678;28;19922;-83
2022/04/23 01:47:24;;;;;;;;;;;7.50;99.90;;;;;;4958084;28;19922;-84
2022/04/23 01:50:11;;;;;;;;;;;7.50;99.90;;;;;;4937731;29;19922;-83
2022/04/23 01:52:58;;;;;;;;;;;7.50;99.90;;;;;;4957981;28;19933;-84
2022/04/23 01:55:45;;;;;;;;;;;7.50;99.90;;;;;;4948597;28;20069;-83
2022/04/23 01:58:33;;;;;;;;;;;7.30;99.90;;;;;;4954541;29;20020;-84
2022/04/23 02:01:20;;;;;;;;;;;7.30;99.90;;;;;;4960835;28;20018;-84
2022/04/23 02:04:08;;;;;;;;;;;7.20;99.90;;;;;;4953741;28;19923;-84
2022/04/23 02:06:59;;;;;;;;;;;7.20;99.90;;;;;;4940353;28;19930;-83
2022/04/23 02:09:46;;;;;;;;;;;7.10;99.90;;;;;;4934538;29;20359;-83
2022/04/23 02:12:33;;;;;;;;;;;7.20;99.90;;;;;;4939937;28;19961;-84
2022/04/23 02:15:20;;;;;;;;;;;7.20;99.90;;;;;;4939270;29;19926;-84
2022/04/23 02:18:08;;;;;;;;;;;7.10;99.90;;;;;;4960723;28;19930;-84
2022/04/23 02:20:58;;;;;;;;;;;7.10;99.90;;;;;;4947437;28;19941;-84
2022/04/23 02:23:48;;;;;;;;;;;7.10;99.90;;;;;;4947360;28;19997;-83
2022/04/23 02:26:35;;;;;;;;;;;7.10;99.90;;;;;;4958948;28;19993;-84
2022/04/23 02:29:22;;;;;;;;;;;7.00;99.90;;;;;;4946964;28;19982;-82
2022/04/23 02:32:10;;;;;;;;;;;6.90;99.90;;;;;;4943922;28;19922;-83
2022/04/23 02:34:57;;;;;;;;;;;6.90;99.90;;;;;;4953651;28;19926;-83
2022/04/23 02:37:45;;;;;;;;;;;6.90;99.90;;;;;;4955459;28;19930;-82
2022/04/23 02:40:34;;;;;;;;;;;6.90;99.90;;;;;;4948588;29;19978;-82
2022/04/23 02:43:22;;;;;;;;;;;6.80;99.90;;;;;;4976134;28;19942;-82
2022/04/23 02:46:09;;;;;;;;;;;6.80;99.90;;;;;;4970138;28;19990;-84
2022/04/23 02:48:57;;;;;;;;;;;6.70;99.90;;;;;;4968245;29;19923;-83
2022/04/23 02:51:44;;;;;;;;;;;6.70;99.90;;;;;;4980804;28;19949;-83
2022/04/23 02:54:31;;;;;;;;;;;6.60;99.90;;;;;;4970404;28;19922;-84
2022/04/23 02:57:19;;;;;;;;;;;6.60;99.90;;;;;;4969419;29;19936;-85
2022/04/23 03:00:07;;;;;;;;;;;6.60;99.90;;;;;;4969689;29;19949;-82
2022/04/23 03:02:55;;;;;;;;;;;6.50;99.90;;;;;;4964821;28;20160;-83
2022/04/23 03:05:45;;;;;;;;;;;6.50;99.90;;;;;;4956314;29;19930;-81
2022/04/23 03:08:35;;;;;;;;;;;6.50;99.90;;;;;;4984209;28;19910;-83
2022/04/23 03:11:24;;;;;;;;;;;6.50;99.90;;;;;;4994065;28;20001;-83
2022/04/23 03:14:14;;;;;;;;;;;6.50;99.90;;;;;;4971135;28;19938;-83
2022/04/23 03:17:01;;;;;;;;;;;6.50;99.90;;;;;;4946255;28;19915;-82
2022/04/23 03:19:48;;;;;;;;;;;6.50;99.90;;;;;;4977740;28;19918;-82
2022/04/23 03:22:38;;;;;;;;;;;6.40;99.90;;;;;;4978745;28;19985;-82
2022/04/23 03:28:01;;;;;;;;;;;6.40;99.90;;;;;;5241736;23;20018;-88
2022/04/23 03:30:49;;;;;;;;;;;6.30;99.90;;;;;;4968909;28;20347;-88
2022/04/23 03:33:36;;;;;;;;;;;6.30;99.90;;;;;;4982273;28;20033;-90
2022/04/23 03:36:23;;;;;;;;;;;6.20;99.90;;;;;;4983712;28;19933;-88
2022/04/23 03:39:10;;;;;;;;;;;6.20;99.90;;;;;;4981584;28;20024;-89
2022/04/23 03:41:57;;;;;;;;;;;6.20;99.90;;;;;;4983728;28;19926;-90
2022/04/23 03:44:44;;;;;;;;;;;6.20;99.90;;;;;;4994378;28;20212;-90
2022/04/23 03:47:31;;;;;;;;;;;6.20;99.90;;;;;;4986537;28;19925;-89
2022/04/23 03:50:20;;;;;;;;;;;6.20;99.90;;;;;;4994782;28;19937;-91
2022/04/23 03:53:07;;;;;;;;;;;6.10;99.90;;;;;;4997804;28;19949;-89
2022/04/23 03:55:55;;;;;;;;;;;6.10;99.90;;;;;;4981158;28;19992;-90
2022/04/23 03:58:49;;;;;;;;;;;6.10;99.90;;;;;;4979205;28;19922;-86
2022/04/23 04:01:36;;;;;;;;;;;6.10;99.90;;;;;;4984292;28;19954;-90
2022/04/23 04:04:23;;;;;;;;;;;6.10;99.90;;;;;;4969764;28;19923;-90
2022/04/23 04:07:17;;;;;;;;;;;6.10;99.90;;;;;;4993906;28;19972;-88
2022/04/23 04:10:04;;;;;;;;;;;6.10;99.90;;;;;;5006497;28;19922;-91
2022/04/23 04:12:53;;;;;;;;;;;5.90;99.90;;;;;;4981485;28;19961;-91
2022/04/23 04:15:41;;;;;;;;;;;5.80;99.90;;;;;;4996501;28;19936;-90
2022/04/23 04:18:28;;;;;;;;;;;5.90;99.90;;;;;;4980012;28;19922;-91
2022/04/23 04:21:16;;;;;;;;;;;5.90;99.90;;;;;;4984915;28;19933;-91
2022/04/23 04:24:03;;;;;;;;;;;5.90;99.90;;;;;;4998533;28;19921;-92
2022/04/23 04:26:52;;;;;;;;;;;5.90;99.90;;;;;;4986753;28;19922;-92
2022/04/23 04:29:41;;;;;;;;;;;5.80;99.90;;;;;;4985812;28;19921;-92
2022/04/23 04:32:32;;;;;;;;;;;5.80;99.90;;;;;;4966858;28;19925;-90
2022/04/23 04:35:22;;;;;;;;;;;5.80;99.90;;;;;;4986424;28;19937;-91
2022/04/23 04:38:11;;;;;;;;;;;5.80;99.90;;;;;;4970786;28;19923;-90
2022/04/23 04:40:58;;;;;;;;;;;5.90;99.90;;;;;;4977973;28;20227;-91
2022/04/23 04:43:45;;;;;;;;;;;6.00;99.90;;;;;;4984192;28;19926;-91
2022/04/23 04:46:33;;;;;;;;;;;6.10;99.90;;;;;;4992257;28;19930;-91
2022/04/23 04:49:22;;;;;;;;;;;6.10;99.90;;;;;;4985617;28;19932;-90
2022/04/23 04:52:09;;;;;;;;;;;6.10;99.90;;;;;;4984243;28;19926;-85
2022/04/23 04:55:01;;;;;;;;;;;6.20;99.90;;;;;;5002664;28;19969;-91
2022/04/23 04:57:49;;;;;;;;;;;6.20;99.90;;;;;;5007041;28;19922;-90
2022/04/23 05:00:39;;;;;;;;;;;6.30;99.90;;;;;;4983693;28;19934;-90
2022/04/23 05:03:26;;;;;;;;;;;6.40;99.90;;;;;;4979341;28;19961;-88
2022/04/23 05:06:13;;;;;;;;;;;6.40;99.90;;;;;;4978380;28;19922;-92
2022/04/23 05:09:00;;;;;;;;;;;6.50;99.90;;;;;;4977822;28;19929;-89
2022/04/23 05:11:47;;;;;;;;;;;6.60;99.90;;;;;;4970560;28;19922;-89
2022/04/23 05:14:34;;;;;;;;;;;6.60;99.90;;;;;;4944831;28;19922;-89
2022/04/23 05:17:26;;;;;;;;;;;6.70;99.90;;;;;;4980920;28;19921;-89
2022/04/23 05:20:16;;;;;;;;;;;6.70;99.90;;;;;;4972473;28;19932;-89
2022/04/23 05:23:06;;;;;;;;;;;6.80;99.90;;;;;;4964850;28;20025;-90
2022/04/23 05:25:53;;;;;;;;;;;6.80;99.90;;;;;;4959102;29;20345;-91
2022/04/23 05:28:41;;;;;;;;;;;6.80;99.90;;;;;;4956869;28;19922;-92
2022/04/23 05:31:28;;;;;;;;;;;6.90;99.90;;;;;;4977234;28;19922;-89
2022/04/23 05:34:18;;;;;;;;;;;7.00;99.90;;;;;;4980297;28;19957;-89
2022/04/23 05:37:05;;;;;;;;;;;7.00;99.90;;;;;;4959498;29;19933;-91
2022/04/23 05:39:54;;;;;;;;;;;7.10;99.90;;;;;;4989979;28;19933;-90
2022/04/23 05:42:42;;;;;;;;;;;7.10;99.90;;;;;;4982073;28;19937;-90
2022/04/23 05:45:29;;;;;;;;;;;7.20;99.90;;;;;;4980941;28;19949;-88
2022/04/23 05:48:19;;;;;;;;;;;7.20;99.90;;;;;;4989030;28;19964;-86
2022/04/23 05:51:07;;;;;;;;;;;7.30;99.90;;;;;;4987846;28;19981;-89
2022/04/23 05:53:56;;;;;;;;;;;7.40;99.90;;;;;;4988040;28;19922;-90
2022/04/23 05:56:49;;;;;;;;;;;7.50;99.90;;;;;;4974464;28;20036;-88
2022/04/23 05:59:36;;;;;;;;;;;7.60;99.90;;;;;;4990802;28;19926;-85
2022/04/23 06:02:23;;;;;;;;;;;7.70;99.90;;;;;;4991960;28;19926;-88
2022/04/23 06:05:10;;;;;;;;;;;7.80;99.90;;;;;;4983329;28;19937;-89
2022/04/23 06:07:57;;;;;;;;;;;7.90;99.90;;;;;;4981307;28;19985;-91
2022/04/23 06:10:44;;;;;;;;;;;7.90;99.90;;;;;;4976018;28;20347;-89
2022/04/23 06:13:31;;;;;;;;;;;8.10;99.90;;;;;;4969664;28;19953;-91
2022/04/23 06:16:24;;;;;;;;;;;8.20;99.90;;;;;;4976895;28;19922;-91
2022/04/23 06:19:11;;;;;;;;;;;8.30;99.90;;;;;;4980604;28;19925;-88
2022/04/23 06:21:59;;;;;;;;;;;8.40;99.90;;;;;;4983945;28;19926;-90
2022/04/23 06:24:46;;;;;;;;;;;8.50;99.90;;;;;;4966657;28;19921;-89
2022/04/23 06:27:34;;;;;;;;;;;8.60;99.90;;;;;;4975355;28;19933;-88
2022/04/23 06:30:24;;;;;;;;;;;8.70;99.90;;;;;;4992548;28;19941;-91
2022/04/23 06:33:12;;;;;;;;;;;8.80;99.90;;;;;;4976822;28;19922;-89
2022/04/23 06:36:01;;;;;;;;;;;8.90;99.90;;;;;;4975738;28;20338;-90
2022/04/23 06:38:48;;;;;;;;;;;9.00;99.90;;;;;;4981552;28;20193;-90
2022/04/23 06:41:40;;;;;;;;;;;8.90;99.90;;;;;;4974382;28;19953;-89
2022/04/23 06:44:27;;;;;;;;;;;8.90;99.90;;;;;;4977223;28;19981;-90
2022/04/23 06:47:15;;;;;;;;;;;8.90;99.90;;;;;;4975249;28;19929;-90
2022/04/23 06:50:03;;;;;;;;;;;8.90;99.90;;;;;;4980579;28;19921;-88
2022/04/23 06:52:52;;;;;;;;;;;9.00;99.90;;;;;;4999467;28;19936;-89
2022/04/23 06:55:39;;;;;;;;;;;9.00;99.90;;;;;;4971119;28;19925;-91
2022/04/23 06:58:27;;;;;;;;;;;9.00;99.90;;;;;;4959453;28;19942;-91
2022/04/23 07:01:15;;;;;;;;;;;9.10;99.90;;;;;;4984076;28;20089;-89
2022/04/23 07:04:04;;;;;;;;;;;9.20;99.90;;;;;;4967034;28;20001;-89
2022/04/23 07:06:51;;;;;;;;;;;9.30;99.90;;;;;;4980733;28;19937;-87
2022/04/23 07:09:39;;;;;;;;;;;9.20;99.90;;;;;;4990697;28;19922;-90
2022/04/23 07:12:27;;;;;;;;;;;9.30;99.90;;;;;;4991999;28;20006;-87
2022/04/23 07:15:16;;;;;;;;;;;9.40;99.90;;;;;;4983555;28;19930;-90
2022/04/23 07:18:03;;;;;;;;;;;9.50;99.90;;;;;;4989468;28;19988;-89
2022/04/23 07:20:51;;;;;;;;;;;9.70;99.90;;;;;;5003130;28;19926;-88
2022/04/23 07:26:46;;;;;;;;;;;9.60;99.90;;;;;;4982831;28;19977;-87
2022/04/23 07:29:33;;;;;;;;;;;9.60;99.90;;;;;;4987297;28;19922;-89
2022/04/23 07:32:21;;;;;;;;;;;9.60;99.90;;;;;;4987573;28;20001;-88
2022/04/23 07:38:16;;;;;;;;;;;9.60;99.90;;;;;;4995125;28;19913;-89
2022/04/23 07:41:04;;;;;;;;;;;9.60;99.90;;;;;;4990023;28;19922;-90
2022/04/23 07:43:51;;;;;;;;;;;9.70;99.90;;;;;;4994952;28;19922;-90
2022/04/23 07:46:39;;;;;;;;;;;9.90;99.90;;;;;;4985878;28;19922;-89
2022/04/23 07:49:26;;;;;;;;;;;9.90;99.90;;;;;;4984571;28;19936;-92
2022/04/23 07:52:13;;;;;;;;;;;9.90;99.90;;;;;;4975475;28;19932;-90
2022/04/23 07:55:04;;;;;;;;;;;9.80;99.90;;;;;;4986244;28;19925;-89
2022/04/23 07:57:55;;;;;;;;;;;9.90;99.90;;;;;;4991751;28;20315;-87
2022/04/23 08:00:44;;;;;;;;;;;10.00;99.90;;;;;;4995201;28;19921;-88
2022/04/23 08:03:32;;;;;;;;;;;10.20;99.90;;;;;;5012518;28;19921;-90
2022/04/23 08:09:01;;;;;;;;;;;10.70;99.90;;;;;;5604306;23;19922;-91
2022/04/23 08:11:48;;;;;;;;;;;10.80;99.90;;;;;;4957438;28;20000;-90
2022/04/23 08:14:36;;;;;;;;;;;10.90;99.90;;;;;;4969788;28;19937;-90
2022/04/23 08:17:23;;;;;;;;;;;11.00;99.90;;;;;;4970498;29;19922;-89
2022/04/23 08:20:11;;;;;;;;;;;11.00;99.90;;;;;;4947941;29;20088;-90
2022/04/23 08:23:02;;;;;;;;;;;11.10;99.90;;;;;;4975651;28;19929;-92
2022/04/23 08:25:49;;;;;;;;;;;11.40;99.90;;;;;;4951262;29;19922;-88
2022/04/23 08:31:42;;;;;;;;;;;11.10;99.90;;;;;;4966056;28;19933;-88
2022/04/23 08:34:33;;;;;;;;;;;11.30;99.90;;;;;;4964388;28;19929;-90
2022/04/23 08:37:22;;;;;;;;;;;11.30;99.90;;;;;;4969867;28;20332;-88
2022/04/23 08:40:10;;;;;;;;;;;11.50;99.90;;;;;;4961350;28;19923;-87
2022/04/23 08:42:57;;;;;;;;;;;11.20;99.90;;;;;;4961672;28;19933;-88
2022/04/23 08:45:45;;;;;;;;;;;11.10;99.90;;;;;;4972255;28;20312;-85
2022/04/23 08:48:34;;;;;;;;;;;11.20;99.90;;;;;;4959303;28;19938;-89
2022/04/23 08:51:25;;;;;;;;;;;11.40;99.90;;;;;;4953074;28;19926;-86
2022/04/23 08:54:13;;;;;;;;;;;11.70;99.90;;;;;;4978339;28;19937;-88
2022/04/23 08:57:01;;;;;;;;;;;11.80;99.90;;;;;;4964688;28;19933;-90
2022/04/23 08:59:53;;;;;;;;;;;11.90;99.90;;;;;;4950584;29;19927;-88
2022/04/23 09:02:42;;;;;;;;;;;12.30;99.90;;;;;;4945883;29;20240;-89
2022/04/23 09:05:31;;;;;;;;;;;12.50;99.90;;;;;;4958956;28;19922;-90
2022/04/23 09:08:21;;;;;;;;;;;12.60;99.90;;;;;;4955062;28;19930;-90
2022/04/23 09:11:08;;;;;;;;;;;12.40;99.90;;;;;;4958920;28;19922;-92
2022/04/23 09:13:55;;;;;;;;;;;12.20;99.90;;;;;;4956760;28;19941;-90
2022/04/23 09:26:18;;;;;;;;;;;12.90;99.90;;;;;;4975854;28;19996;-88
2022/04/23 09:29:17;;;;;;;;;;;12.90;99.90;;;;;;4934303;28;19944;-88
2022/04/23 09:32:08;;;;;;;;;;;12.90;99.90;;;;;;4962209;28;19926;-91
2022/04/23 09:35:11;;;;;;;;;;;12.60;99.90;;;;;;4963674;28;19930;-86
2022/04/23 09:38:20;;;;;;;;;;;12.20;99.90;;;;;;4941825;28;19923;-89
2022/04/23 09:41:21;;;;;;;;;;;12.10;99.90;;;;;;4960114;28;19926;-87
2022/04/23 09:44:12;;;;;;;;;;;12.20;99.90;;;;;;4960684;28;20220;-90
2022/04/23 09:46:59;;;;;;;;;;;12.40;99.90;;;;;;4963014;28;19923;-89
2022/04/23 09:49:57;;;;;;;;;;;12.20;99.90;;;;;;4966633;28;19937;-88
2022/04/23 09:52:49;;;;;;;;;;;12.10;99.90;;;;;;4965977;28;19923;-87
2022/04/23 09:55:45;;;;;;;;;;;12.10;99.90;;;;;;4956205;28;20336;-84
2022/04/23 09:58:35;;;;;;;;;;;12.00;99.90;;;;;;4958893;28;19981;-88
2022/04/23 10:01:23;;;;;;;;;;;12.00;99.90;;;;;;4953288;28;19933;-87
2022/04/23 10:04:12;;;;;;;;;;;12.00;99.90;;;;;;4950109;28;20284;-88
2022/04/23 10:07:05;;;;;;;;;;;12.10;99.90;;;;;;4983310;28;19929;-88
2022/04/23 10:09:54;;;;;;;;;;;12.30;99.90;;;;;;4988457;28;20320;-85
2022/04/23 10:12:45;;;;;;;;;;;12.10;99.90;;;;;;4971570;28;19922;-89
2022/04/23 10:15:37;;;;;;;;;;;12.20;99.90;;;;;;4948958;29;20236;-87
2022/04/23 10:18:27;;;;;;;;;;;12.40;99.90;;;;;;4960038;28;20037;-87
2022/04/23 10:21:19;;;;;;;;;;;12.70;99.90;;;;;;4942221;28;19923;-88
2022/04/23 10:24:22;;;;;;;;;;;12.90;99.90;;;;;;4939173;29;19922;-88
2022/04/23 10:27:13;;;;;;;;;;;13.10;99.90;;;;;;4943829;28;19923;-90
2022/04/23 10:30:04;;;;;;;;;;;13.00;99.90;;;;;;4953240;28;19910;-86
2022/04/23 10:32:51;;;;;;;;;;;12.90;99.90;;;;;;4987362;28;19910;-85
2022/04/23 10:36:00;;;;;;;;;;;12.80;99.90;;;;;;4974743;28;19914;-82
2022/04/23 10:39:09;;;;;;;;;;;12.80;99.90;;;;;;4964357;28;19926;-86
2022/04/23 10:41:59;;;;;;;;;;;12.80;99.90;;;;;;4977021;28;19930;-82
2022/04/23 10:44:47;;;;;;;;;;;12.80;99.90;;;;;;4975655;28;19962;-88
2022/04/23 10:47:34;;;;;;;;;;;12.80;99.90;;;;;;4978194;28;19962;-88
2022/04/23 10:50:23;;;;;;;;;;;12.80;99.90;;;;;;4943519;29;19914;-86
2022/04/23 10:53:11;;;;;;;;;;;12.60;99.90;;;;;;4958162;28;19914;-80
2022/04/23 10:56:09;;;;;;;;;;;12.60;99.90;;;;;;4961784;28;19911;-85
2022/04/23 10:58:59;;;;;;;;;;;12.90;99.90;;;;;;4975923;28;19922;-83
2022/04/23 11:01:50;;;;;;;;;;;12.90;99.90;;;;;;4976124;28;19930;-87
2022/04/23 11:12:14;;;;;;;;;;;12.90;99.90;;;;;;4974239;28;20240;-91
2022/04/23 11:14:37;;;;;;;;;;;12.90;99.90;;;;;;4967044;29;20337;-91
2022/04/23 11:17:44;;;;;;;;;;;13.00;99.90;;;;;;4965883;29;19985;-89
2022/04/23 11:20:33;;;;;;;;;;;13.10;99.90;;;;;;4967796;28;20019;-90
2022/04/23 11:23:24;;;;;;;;;;;13.20;99.90;;;;;;4959090;28;19994;-85
2022/04/23 11:26:13;;;;;;;;;;;13.30;99.90;;;;;;4958152;28;20213;-86
2022/04/23 11:29:05;;;;;;;;;;;13.30;99.90;;;;;;4957723;28;19948;-88
2022/04/23 11:31:56;;;;;;;;;;;13.70;99.90;;;;;;4955336;29;19934;-90
2022/04/23 11:34:54;;;;;;;;;;;13.70;99.90;;;;;;4957681;28;19922;-89
2022/04/23 11:37:42;;;;;;;;;;;13.50;99.90;;;;;;4964270;28;20395;-88
2022/04/23 11:40:34;;;;;;;;;;;13.70;99.90;;;;;;4961377;28;19934;-89
2022/04/23 11:43:31;;;;;;;;;;;14.00;99.90;;;;;;4951922;29;19946;-85
2022/04/23 11:46:24;;;;;;;;;;;13.90;99.90;;;;;;4961663;28;19926;-87
2022/04/23 11:49:29;;;;;;;;;;;13.90;99.90;;;;;;4942603;29;19949;-82
2022/04/23 11:52:17;;;;;;;;;;;13.60;99.90;;;;;;4956409;28;19926;-85
2022/04/23 11:55:04;;;;;;;;;;;13.60;99.90;;;;;;4941947;28;19933;-82
2022/04/23 11:57:54;;;;;;;;;;;13.60;99.90;;;;;;4968953;28;19921;-84
2022/04/23 12:00:46;;;;;;;;;;;13.40;99.90;;;;;;4953234;28;19949;-83
2022/04/23 12:03:33;;;;;;;;;;;13.50;99.90;;;;;;4965234;28;20013;-84
2022/04/23 12:06:20;;;;;;;;;;;13.60;99.90;;;;;;4974632;28;19930;-82
2022/04/23 12:09:08;;;;;;;;;;;13.40;99.90;;;;;;4957169;28;20049;-84
2022/04/23 12:11:58;;;;;;;;;;;13.70;99.90;;;;;;4957386;28;19922;-84
2022/04/23 12:14:46;;;;;;;;;;;13.70;99.90;;;;;;4956916;29;20348;-84
2022/04/23 12:17:42;;;;;;;;;;;13.60;99.90;;;;;;4959276;28;19937;-80
2022/04/23 12:20:34;;;;;;;;;;;13.70;99.90;;;;;;4955025;28;20065;-81
2022/04/23 12:23:21;;;;;;;;;;;13.60;99.90;;;;;;4956062;29;20007;-82
2022/04/23 12:26:12;;;;;;;;;;;13.30;99.90;;;;;;4956200;28;19926;-81
2022/04/23 12:41:04;;;;;;;;;;;13.00;99.90;;;;;;4944173;29;19937;-86
2022/04/23 12:43:52;;;;;;;;;;;12.90;99.90;;;;;;4956571;28;19977;-84
2022/04/23 12:46:58;;;;;;;;;;;12.90;99.90;;;;;;4949645;29;19951;-82
2022/04/23 12:49:48;;;;;;;;;;;12.80;99.90;;;;;;4955817;28;20044;-80
2022/04/23 12:52:41;;;;;;;;;;;12.80;99.90;;;;;;4938446;28;20006;-80
2022/04/23 12:55:30;;;;;;;;;;;12.80;99.90;;;;;;4953393;29;19930;-82
2022/04/23 12:58:17;;;;;;;;;;;12.80;99.90;;;;;;4956516;28;19923;-83
2022/04/23 13:01:07;;;;;;;;;;;13.00;99.90;;;;;;4975565;28;20005;-85
2022/04/23 13:03:55;;;;;;;;;;;12.90;99.90;;;;;;4953692;29;19930;-84
2022/04/23 13:09:51;;;;;;;;;;;12.90;99.90;;;;;;4974413;28;19922;-83
2022/04/23 13:12:38;;;;;;;;;;;12.60;99.90;;;;;;4973047;28;19923;-81
2022/04/23 13:15:25;;;;;;;;;;;12.30;99.90;;;;;;4969442;28;19926;-81
2022/04/23 13:18:13;;;;;;;;;;;12.30;99.90;;;;;;4960060;28;19985;-83
2022/04/23 13:21:00;;;;;;;;;;;12.40;99.90;;;;;;4980020;28;19910;-83
2022/04/23 13:23:47;;;;;;;;;;;12.80;99.90;;;;;;4973748;28;19937;-84
2022/04/23 13:26:34;;;;;;;;;;;13.30;99.90;;;;;;4959349;28;19910;-83
2022/04/23 13:29:21;;;;;;;;;;;13.70;99.90;;;;;;4978423;28;19910;-81
2022/04/23 13:32:10;;;;;;;;;;;14.00;99.90;;;;;;4967973;28;19989;-84
2022/04/23 13:35:00;;;;;;;;;;;13.90;99.90;;;;;;4967993;28;19922;-83
2022/04/23 13:37:49;;;;;;;;;;;14.10;99.90;;;;;;4926481;29;19923;-87
2022/04/23 13:40:39;;;;;;;;;;;14.10;99.90;;;;;;4942493;29;19937;-81
2022/04/23 13:43:27;;;;;;;;;;;14.20;99.90;;;;;;4940700;29;20363;-85
2022/04/23 13:46:15;;;;;;;;;;;14.60;99.90;;;;;;4947936;29;19986;-85
2022/04/23 13:49:04;;;;;;;;;;;14.80;99.90;;;;;;4953187;28;19944;-86
2022/04/23 13:51:52;;;;;;;;;;;15.00;99.90;;;;;;4931301;29;19933;-85
2022/04/23 13:54:39;;;;;;;;;;;15.00;99.90;;;;;;4942982;28;20052;-86
2022/04/23 13:57:29;;;;;;;;;;;15.00;99.90;;;;;;4951139;28;19941;-83
2022/04/23 14:00:19;;;;;;;;;;;15.00;99.90;;;;;;4966726;28;19930;-85
2022/04/23 14:12:24;;;;;;;;;;;13.70;99.90;;;;;;4944168;29;20356;-83
2022/04/23 14:15:13;;;;;;;;;;;13.60;99.90;;;;;;4972725;28;19922;-84
2022/04/23 14:18:02;;;;;;;;;;;13.40;99.90;;;;;;4962162;28;19922;-85
2022/04/23 14:20:49;;;;;;;;;;;13.20;99.90;;;;;;4942323;28;20193;-81
2022/04/23 14:23:36;;;;;;;;;;;13.20;99.90;;;;;;4953278;28;20276;-83
2022/04/23 14:26:23;;;;;;;;;;;13.10;99.90;;;;;;4968144;28;19922;-84
2022/04/23 14:29:13;;;;;;;;;;;13.20;99.90;;;;;;4955327;28;20237;-84
2022/04/23 14:32:02;;;;;;;;;;;13.20;99.90;;;;;;4954445;28;19922;-80
2022/04/23 14:34:51;;;;;;;;;;;13.20;99.90;;;;;;4955398;28;19937;-83
2022/04/23 14:37:38;;;;;;;;;;;13.20;99.90;;;;;;4963076;28;19923;-83
2022/04/23 14:40:26;;;;;;;;;;;13.40;99.90;;;;;;4962545;28;19926;-85
2022/04/23 14:43:14;;;;;;;;;;;13.50;99.90;;;;;;4962687;28;19933;-83
2022/04/23 14:46:04;;;;;;;;;;;13.50;99.90;;;;;;4957924;28;20359;-84
2022/04/23 14:48:51;;;;;;;;;;;13.30;99.90;;;;;;4954816;29;19922;-83
2022/04/23 14:54:45;;;;;;;;;;;13.40;99.90;;;;;;4974901;28;20316;-85
2022/04/23 14:57:32;;;;;;;;;;;13.40;99.90;;;;;;4958778;28;19922;-83
2022/04/23 15:00:21;;;;;;;;;;;13.60;99.90;;;;;;4953934;29;20275;-81
2022/04/23 15:03:08;;;;;;;;;;;13.60;99.90;;;;;;4947048;29;19922;-85
2022/04/23 15:05:56;;;;;;;;;;;13.60;99.90;;;;;;4955169;29;20038;-82
2022/04/23 15:08:45;;;;;;;;;;;13.70;99.90;;;;;;4951818;28;20321;-80
2022/04/23 15:11:33;;;;;;;;;;;13.70;99.90;;;;;;4958957;28;20355;-83
2022/04/23 15:14:20;;;;;;;;;;;13.80;99.90;;;;;;4945319;29;20343;-85
2022/04/23 15:17:07;;;;;;;;;;;13.90;99.90;;;;;;4971037;28;19926;-84
2022/04/23 15:19:56;;;;;;;;;;;13.90;99.90;;;;;;4958756;28;19933;-83
2022/04/23 15:22:46;;;;;;;;;;;13.80;99.90;;;;;;4959648;28;19934;-84
2022/04/23 15:25:35;;;;;;;;;;;13.90;99.90;;;;;;4958961;28;19974;-84
2022/04/23 15:28:23;;;;;;;;;;;14.00;99.90;;;;;;4945037;28;20260;-81
2022/04/23 15:31:10;;;;;;;;;;;13.80;99.90;;;;;;4959389;28;19923;-84
2022/04/23 15:33:58;;;;;;;;;;;13.70;99.90;;;;;;4954000;29;19937;-81
2022/04/23 15:36:47;;;;;;;;;;;13.70;99.90;;;;;;4960187;29;19934;-82
2022/04/23 15:39:35;;;;;;;;;;;13.70;99.90;;;;;;4958766;28;19966;-81
2022/04/23 15:42:22;;;;;;;;;;;13.80;99.90;;;;;;4957586;28;19957;-84
2022/04/23 15:45:09;;;;;;;;;;;13.90;99.90;;;;;;4949190;28;19941;-86
2022/04/23 15:47:56;;;;;;;;;;;14.20;99.90;;;;;;4964335;28;19945;-83
2022/04/23 15:50:47;;;;;;;;;;;14.40;99.90;;;;;;4974632;28;19922;-82
2022/04/23 15:53:34;;;;;;;;;;;14.30;99.90;;;;;;4969956;28;19937;-84
2022/04/23 15:56:21;;;;;;;;;;;14.30;99.90;;;;;;4950272;28;19922;-83
2022/04/23 15:59:11;;;;;;;;;;;14.10;99.90;;;;;;4976090;28;19922;-81
2022/04/23 16:01:58;;;;;;;;;;;14.00;99.90;;;;;;4961014;28;19934;-79
2022/04/23 16:04:47;;;;;;;;;;;13.70;99.90;;;;;;4960750;28;20308;-82
2022/04/23 16:07:34;;;;;;;;;;;13.60;99.90;;;;;;4950458;28;19922;-83
2022/04/23 16:10:22;;;;;;;;;;;13.50;99.90;;;;;;4947631;29;19938;-83
2022/04/23 16:13:09;;;;;;;;;;;13.60;99.90;;;;;;4957313;28;19932;-84
2022/04/23 16:16:17;;;;;;;;;;;13.50;99.90;;;;;;4970268;28;19966;-83
2022/04/23 16:19:04;;;;;;;;;;;13.40;99.90;;;;;;4971175;28;19926;-86
2022/04/23 16:21:51;;;;;;;;;;;13.30;99.90;;;;;;4968515;28;19921;-82
2022/04/23 16:24:41;;;;;;;;;;;13.30;99.90;;;;;;4957502;28;19958;-80
2022/04/23 16:27:30;;;;;;;;;;;13.30;99.90;;;;;;4958171;28;20382;-83
2022/04/23 16:30:18;;;;;;;;;;;13.20;99.90;;;;;;4936539;28;19954;-81
2022/04/23 16:33:05;;;;;;;;;;;13.30;99.90;;;;;;4949779;28;19937;-83
2022/04/23 16:48:16;;;;;;;;;;;13.00;99.90;;;;;;4945632;28;20293;-85
2022/04/23 16:51:04;;;;;;;;;;;13.00;99.90;;;;;;4957468;28;20330;-80
2022/04/23 16:53:51;;;;;;;;;;;13.00;99.90;;;;;;4963001;28;19922;-85
2022/04/23 16:56:39;;;;;;;;;;;13.00;99.90;;;;;;4952965;29;19926;-83
2022/04/23 16:59:26;;;;;;;;;;;12.90;99.90;;;;;;4961617;28;19926;-81
2022/04/23 17:02:14;;;;;;;;;;;12.90;99.90;;;;;;4942950;29;19933;-83
2022/04/23 17:05:01;;;;;;;;;;;12.80;99.90;;;;;;4955706;29;19923;-82
2022/04/23 17:07:49;;;;;;;;;;;12.80;99.90;;;;;;4957932;28;19937;-84
2022/04/23 17:10:36;;;;;;;;;;;12.80;99.90;;;;;;4964878;28;20033;-86
2022/04/23 17:13:28;;;;;;;;;;;12.80;99.90;;;;;;4940149;28;19922;-84
2022/04/23 17:16:18;;;;;;;;;;;12.80;99.90;;;;;;4964463;28;19933;-82
2022/04/23 17:19:06;;;;;;;;;;;12.80;99.90;;;;;;4961639;28;19923;-83
2022/04/23 17:22:00;;;;;;;;;;;12.90;99.90;;;;;;4958313;28;20005;-84
2022/04/23 17:24:50;;;;;;;;;;;12.90;99.90;;;;;;4976004;28;20197;-84
2022/04/23 17:27:40;;;;;;;;;;;12.80;99.90;;;;;;4972172;28;20366;-85
2022/04/23 17:30:27;;;;;;;;;;;12.70;99.90;;;;;;4961271;28;20310;-80
2022/04/23 17:33:14;;;;;;;;;;;12.70;99.90;;;;;;4953232;28;20355;-81
2022/04/23 17:36:02;;;;;;;;;;;12.60;99.90;;;;;;4957106;28;19922;-82
2022/04/23 17:38:57;;;;;;;;;;;12.50;99.90;;;;;;4958653;28;20247;-82
2022/04/23 17:41:44;;;;;;;;;;;12.40;99.90;;;;;;4970012;28;19922;-84